createdAt,value
2022-08-01T00:00:50.488Z,72.8
2022-08-01T00:01:50.563Z,72.42
2022-08-01T00:02:50.540Z,72.16
2022-08-01T00:03:50.488Z,72.25
2022-08-01T00:04:50.474Z,72.64
2022-08-01T00:05:50.460Z,72.93
2022-08-01T00:06:50.482Z,72.99
2022-08-01T00:07:50.459Z,72.99
2022-08-01T00:08:50.461Z,73.96
2022-08-01T00:09:50.473Z,73.96
2022-08-01T00:10:50.478Z,74.53
2022-08-01T00:11:59.466Z,74.54
2022-08-01T00:12:50.473Z,74.2
2022-08-01T00:13:50.468Z,73.81
2022-08-01T00:14:50.484Z,73.05
2022-08-01T00:15:53.960Z,72.88
2022-08-01T00:16:50.481Z,72.73
2022-08-01T00:17:50.477Z,72.63
2022-08-01T00:18:50.475Z,72.4
2022-08-01T00:19:50.472Z,72.1
2022-08-01T00:20:50.483Z,72.11
2022-08-01T00:22:02.164Z,71.68
2022-08-01T00:22:50.471Z,71.44
2022-08-01T00:23:50.471Z,71.69
2022-08-01T00:24:50.473Z,71.23
2022-08-01T00:25:50.472Z,70.29
2022-08-01T00:26:50.481Z,70.1
2022-08-01T00:27:50.467Z,69.82
2022-08-01T00:28:50.479Z,69.96
2022-08-01T00:30:11.698Z,70
2022-08-01T00:30:50.462Z,70
2022-08-01T00:31:50.476Z,70.24
2022-08-01T00:32:50.470Z,70.16
2022-08-01T00:33:50.463Z,70.25
2022-08-01T00:34:50.489Z,70.46
2022-08-01T00:35:50.464Z,69.98
2022-08-01T00:36:50.487Z,69.99
2022-08-01T00:37:50.465Z,70
2022-08-01T00:38:50.468Z,70.01
2022-08-01T00:39:50.472Z,70.18
2022-08-01T00:40:50.465Z,70.63
2022-08-01T00:41:50.471Z,70.93
2022-08-01T00:42:50.466Z,71.03
2022-08-01T00:43:50.472Z,71.43
2022-08-01T00:44:50.488Z,71.3
2022-08-01T00:45:50.465Z,71.4
2022-08-01T00:46:50.478Z,70.92
2022-08-01T00:47:54.939Z,70.12
2022-08-01T00:48:50.514Z,70.14
2022-08-01T00:49:50.460Z,70.29
2022-08-01T00:50:50.461Z,70.41
2022-08-01T00:51:50.478Z,70.66
2022-08-01T00:52:51.678Z,71.06
2022-08-01T00:53:51.268Z,71.55
2022-08-01T00:54:50.468Z,71.45
2022-08-01T00:55:50.469Z,71.01
2022-08-01T00:56:50.487Z,70.57
2022-08-01T00:58:04.655Z,70.46
2022-08-01T00:58:50.509Z,70.58
2022-08-01T00:59:50.475Z,70.64
2022-08-01T01:00:53.756Z,70.74
2022-08-01T01:01:50.530Z,70.71
2022-08-01T01:02:50.463Z,70.79
2022-08-01T01:03:59.062Z,71.03
2022-08-01T01:04:50.461Z,70.93
2022-08-01T01:05:50.463Z,70.84
2022-08-01T01:06:50.483Z,70.76
2022-08-01T01:07:50.466Z,70.82
2022-08-01T01:08:50.461Z,70.39
2022-08-01T01:09:50.473Z,70.4
2022-08-01T01:10:50.471Z,70.4
2022-08-01T01:11:50.489Z,70.17
2022-08-01T01:12:50.516Z,70.18
2022-08-01T01:13:51.074Z,69.85
2022-08-01T01:14:50.488Z,69.76
2022-08-01T01:15:50.477Z,69.74
2022-08-01T01:16:50.501Z,70.22
2022-08-01T01:17:51.871Z,70.18
2022-08-01T01:18:50.474Z,69.73
2022-08-01T01:19:50.457Z,70.21
2022-08-01T01:20:50.459Z,70.3
2022-08-01T01:21:50.466Z,70.7
2022-08-01T01:22:50.471Z,70.55
2022-08-01T01:23:50.506Z,77.52
2022-08-01T01:24:50.448Z,70.97
2022-08-01T01:25:50.449Z,71.44
2022-08-01T01:26:50.489Z,72
2022-08-01T01:27:50.468Z,72.04
2022-08-01T01:28:50.468Z,72.26
2022-08-01T01:29:58.559Z,72.18
2022-08-01T01:30:50.472Z,71.68
2022-08-01T01:31:50.480Z,71.33
2022-08-01T01:32:50.473Z,71.31
2022-08-01T01:33:50.463Z,71.42
2022-08-01T01:34:50.467Z,71.43
2022-08-01T01:35:50.463Z,71.43
2022-08-01T01:36:50.477Z,71.72
2022-08-01T01:37:50.460Z,73.33
2022-08-01T01:38:50.469Z,73.33
2022-08-01T01:39:54.300Z,74.96
2022-08-01T01:40:50.457Z,75.21
2022-08-01T01:41:50.484Z,74.79
2022-08-01T01:42:50.458Z,74.69
2022-08-01T01:43:50.476Z,74.4
2022-08-01T01:44:50.477Z,74.77
2022-08-01T01:45:50.534Z,74.88
2022-08-01T01:46:50.476Z,74.96
2022-08-01T01:47:50.468Z,75.49
2022-08-01T01:48:50.549Z,75.08
2022-08-01T01:49:50.482Z,74.79
2022-08-01T01:50:50.487Z,74.59
2022-08-01T01:52:03.628Z,74.59
2022-08-01T01:52:50.478Z,74.83
2022-08-01T01:53:50.474Z,74.59
2022-08-01T01:54:50.479Z,74.51
2022-08-01T01:55:50.487Z,75.04
2022-08-01T01:56:50.479Z,75.12
2022-08-01T01:57:50.467Z,74.47
2022-08-01T01:58:50.456Z,74.95
2022-08-01T01:59:50.468Z,75.37
2022-08-01T02:00:50.568Z,75.13
2022-08-01T02:02:05.095Z,74.43
2022-08-01T02:02:50.506Z,73.61
2022-08-01T02:03:50.453Z,79.29
2022-08-01T02:04:50.483Z,72.54
2022-08-01T02:05:50.486Z,73.05
2022-08-01T02:06:50.492Z,73.43
2022-08-01T02:07:50.465Z,73.54
2022-08-01T02:08:50.465Z,73.21
2022-08-01T02:09:50.472Z,73.12
2022-08-01T02:10:50.472Z,73.01
2022-08-01T02:12:08.013Z,73.17
2022-08-01T02:12:50.475Z,73.24
2022-08-01T02:13:50.469Z,72.96
2022-08-01T02:14:50.477Z,73.24
2022-08-01T02:15:59.943Z,73.48
2022-08-01T02:16:50.480Z,73.99
2022-08-01T02:17:50.464Z,74.14
2022-08-01T02:18:50.468Z,74.16
2022-08-01T02:19:50.468Z,74.16
2022-08-01T02:20:50.458Z,73.46
2022-08-01T02:21:50.483Z,73.21
2022-08-01T02:22:50.468Z,73.71
2022-08-01T02:23:50.473Z,73.65
2022-08-01T02:24:50.464Z,74.16
2022-08-01T02:26:10.519Z,74.21
2022-08-01T02:26:50.476Z,73.89
2022-08-01T02:27:50.462Z,73.82
2022-08-01T02:28:50.468Z,74.06
2022-08-01T02:29:50.476Z,73.99
2022-08-01T02:30:50.476Z,73.99
2022-08-01T02:31:50.483Z,74.12
2022-08-01T02:32:50.462Z,74.16
2022-08-01T02:33:50.463Z,74.12
2022-08-01T02:34:50.472Z,74.14
2022-08-01T02:36:30.781Z,74.4
2022-08-01T02:36:50.489Z,74.52
2022-08-01T02:37:50.466Z,74.49
2022-08-01T02:38:50.481Z,74.2
2022-08-01T02:39:50.473Z,74.38
2022-08-01T02:40:50.472Z,74.4
2022-08-01T02:41:50.482Z,74.18
2022-08-01T02:42:50.473Z,74.5
2022-08-01T02:43:53.145Z,74.67
2022-08-01T02:44:50.493Z,74.68
2022-08-01T02:45:50.473Z,74.91
2022-08-01T02:46:50.492Z,74.91
2022-08-01T02:47:50.472Z,74.99
2022-08-01T02:48:50.545Z,74.99
2022-08-01T02:49:53.589Z,74.93
2022-08-01T02:50:50.478Z,74.95
2022-08-01T02:51:50.500Z,75.03
2022-08-01T02:52:50.466Z,75.08
2022-08-01T02:53:50.468Z,75.11
2022-08-01T02:54:50.473Z,75.18
2022-08-01T02:55:50.468Z,75.18
2022-08-01T02:56:50.490Z,75.26
2022-08-01T02:57:52.141Z,75.28
2022-08-01T02:58:50.496Z,75.27
2022-08-01T02:59:50.488Z,75.42
2022-08-01T03:00:50.472Z,75.48
2022-08-01T03:01:50.582Z,75.78
2022-08-01T03:02:50.476Z,75.96
2022-08-01T03:03:50.481Z,76
2022-08-01T03:04:53.938Z,75.79
2022-08-01T03:05:50.473Z,75.95
2022-08-01T03:06:50.497Z,75.97
2022-08-01T03:07:50.476Z,75.97
2022-08-01T03:08:50.464Z,75.91
2022-08-01T03:09:50.477Z,75.86
2022-08-01T03:10:50.497Z,75.92
2022-08-01T03:11:50.488Z,75.92
2022-08-01T03:12:50.480Z,75.92
2022-08-01T03:13:50.481Z,76.07
2022-08-01T03:14:50.489Z,76.34
2022-08-01T03:15:50.467Z,76.5
2022-08-01T03:16:50.484Z,76.18
2022-08-01T03:17:50.483Z,76.18
2022-08-01T03:18:50.480Z,75.98
2022-08-01T03:19:50.470Z,75.99
2022-08-01T03:20:50.476Z,75.9
2022-08-01T03:21:50.498Z,75.94
2022-08-01T03:22:50.487Z,76.55
2022-08-01T03:23:54.754Z,76.55
2022-08-01T03:24:50.999Z,76.73
2022-08-01T03:25:50.477Z,76.68
2022-08-01T03:26:50.495Z,76.71
2022-08-01T03:27:50.478Z,76.71
2022-08-01T03:28:50.480Z,76.61
2022-08-01T03:29:50.493Z,75.78
2022-08-01T03:30:50.468Z,75.6
2022-08-01T03:31:50.495Z,75.4
2022-08-01T03:32:50.479Z,75.49
2022-08-01T03:33:50.483Z,75.53
2022-08-01T03:34:50.474Z,75.53
2022-08-01T03:35:50.483Z,75.29
2022-08-01T03:36:50.495Z,75.25
2022-08-01T03:38:14.871Z,75.41
2022-08-01T03:38:50.486Z,75.41
2022-08-01T03:39:50.521Z,75.07
2022-08-01T03:40:50.488Z,74.98
2022-08-01T03:41:54.857Z,75.16
2022-08-01T03:42:50.491Z,75.92
2022-08-01T03:43:50.500Z,75.58
2022-08-01T03:44:50.528Z,75.46
2022-08-01T03:45:50.497Z,75.17
2022-08-01T03:46:50.517Z,75.2
2022-08-01T03:47:52.067Z,75.12
2022-08-01T03:48:50.518Z,74.84
2022-08-01T03:49:50.479Z,74.61
2022-08-01T03:50:50.468Z,74.61
2022-08-01T03:51:50.547Z,74.22
2022-08-01T03:52:50.476Z,74.24
2022-08-01T03:53:50.477Z,74.48
2022-08-01T03:54:50.515Z,74.56
2022-08-01T03:55:50.476Z,74.71
2022-08-01T03:56:50.513Z,74.7
2022-08-01T03:57:50.491Z,74.67
2022-08-01T03:58:50.564Z,74.39
2022-08-01T03:59:50.491Z,74.31
2022-08-01T04:00:50.478Z,74.16
2022-08-01T04:01:50.527Z,74.31
2022-08-01T04:02:50.476Z,74.49
2022-08-01T04:03:50.482Z,74.55
2022-08-01T04:04:50.475Z,74.7
2022-08-01T04:05:50.474Z,74.93
2022-08-01T04:06:50.482Z,75.18
2022-08-01T04:07:50.479Z,75.21
2022-08-01T04:08:50.475Z,75.36
2022-08-01T04:09:50.488Z,74.99
2022-08-01T04:10:50.558Z,74.69
2022-08-01T04:11:50.499Z,74.59
2022-08-01T04:12:50.475Z,74.59
2022-08-01T04:13:50.473Z,74.13
2022-08-01T04:14:50.493Z,73.94
2022-08-01T04:15:50.478Z,73.98
2022-08-01T04:16:50.485Z,74.22
2022-08-01T04:17:50.474Z,73.95
2022-08-01T04:18:50.465Z,74.04
2022-08-01T04:19:50.467Z,73.92
2022-08-01T04:20:50.473Z,78.99
2022-08-01T04:21:50.494Z,73.72
2022-08-01T04:22:50.477Z,73.52
2022-08-01T04:23:51.715Z,73.6
2022-08-01T04:24:56.316Z,73.26
2022-08-01T04:25:50.467Z,73.43
2022-08-01T04:26:50.500Z,73.45
2022-08-01T04:27:51.974Z,73.69
2022-08-01T04:28:50.482Z,73.57
2022-08-01T04:29:50.486Z,73.56
2022-08-01T04:30:50.465Z,73.56
2022-08-01T04:31:50.491Z,73.21
2022-08-01T04:32:50.461Z,73.23
2022-08-01T04:33:50.475Z,73.27
2022-08-01T04:34:50.467Z,73.31
2022-08-01T04:36:02.428Z,73.31
2022-08-01T04:36:50.496Z,73.54
2022-08-01T04:37:50.470Z,73.59
2022-08-01T04:38:50.472Z,73.79
2022-08-01T04:39:51.378Z,74.02
2022-08-01T04:40:50.478Z,74.05
2022-08-01T04:41:50.481Z,73.99
2022-08-01T04:42:50.468Z,74.15
2022-08-01T04:43:50.481Z,74.15
2022-08-01T04:44:50.493Z,74.54
2022-08-01T04:45:50.488Z,74.7
2022-08-01T04:46:50.479Z,74.7
2022-08-01T04:47:50.474Z,74.11
2022-08-01T04:48:50.555Z,74.4
2022-08-01T04:49:50.498Z,74.54
2022-08-01T04:50:50.583Z,74.64
2022-08-01T04:51:50.489Z,74.58
2022-08-01T04:52:50.475Z,74.52
2022-08-01T04:53:50.480Z,74.64
2022-08-01T04:54:50.471Z,74.73
2022-08-01T04:55:50.474Z,74.65
2022-08-01T04:56:51.472Z,74.46
2022-08-01T04:57:50.469Z,74.55
2022-08-01T04:58:50.469Z,74.44
2022-08-01T04:59:50.494Z,74.29
2022-08-01T05:00:50.518Z,74.13
2022-08-01T05:01:50.612Z,74.17
2022-08-01T05:02:50.479Z,74.27
2022-08-01T05:03:50.459Z,74.43
2022-08-01T05:04:50.479Z,75.15
2022-08-01T05:05:50.462Z,75.24
2022-08-01T05:06:50.476Z,75.26
2022-08-01T05:07:50.460Z,75.14
2022-08-01T05:08:50.463Z,75.14
2022-08-01T05:09:50.462Z,75.41
2022-08-01T05:10:50.476Z,75.99
2022-08-01T05:11:50.508Z,76.39
2022-08-01T05:12:50.490Z,76.47
2022-08-01T05:13:50.496Z,76.82
2022-08-01T05:14:50.504Z,77.4
2022-08-01T05:15:50.493Z,77.27
2022-08-01T05:16:50.509Z,77.17
2022-08-01T05:17:50.507Z,76.84
2022-08-01T05:18:50.499Z,77.38
2022-08-01T05:19:50.502Z,77.38
2022-08-01T05:20:50.472Z,77.14
2022-08-01T05:21:50.473Z,76.84
2022-08-01T05:22:50.447Z,76.7
2022-08-01T05:23:50.447Z,76.51
2022-08-01T05:24:50.446Z,75.98
2022-08-01T05:25:57.743Z,75.53
2022-08-01T05:26:50.488Z,75.44
2022-08-01T05:27:50.926Z,74.93
2022-08-01T05:28:50.480Z,74.97
2022-08-01T05:29:50.486Z,75.27
2022-08-01T05:30:50.477Z,75.02
2022-08-01T05:31:50.491Z,75.03
2022-08-01T05:32:50.483Z,75.17
2022-08-01T05:33:50.475Z,75.2
2022-08-01T05:34:50.475Z,74.83
2022-08-01T05:35:50.474Z,74.67
2022-08-01T05:36:54.042Z,74.54
2022-08-01T05:37:50.456Z,74.5
2022-08-01T05:38:50.460Z,74.72
2022-08-01T05:39:50.461Z,74.85
2022-08-01T05:40:50.461Z,75.04
2022-08-01T05:41:50.477Z,75.04
2022-08-01T05:42:50.472Z,75.04
2022-08-01T05:43:50.479Z,74.97
2022-08-01T05:44:50.494Z,75.04
2022-08-01T05:45:50.462Z,75.09
2022-08-01T05:46:50.481Z,75.01
2022-08-01T05:47:50.464Z,74.64
2022-08-01T05:48:50.534Z,74.32
2022-08-01T05:49:50.465Z,73.77
2022-08-01T05:50:50.461Z,73.73
2022-08-01T05:51:50.491Z,73.74
2022-08-01T05:52:50.469Z,73.34
2022-08-01T05:53:50.462Z,73.34
2022-08-01T05:54:50.467Z,72.79
2022-08-01T05:55:50.462Z,72.12
2022-08-01T05:56:50.480Z,72.29
2022-08-01T05:57:50.466Z,72.2
2022-08-01T05:58:50.470Z,72.54
2022-08-01T05:59:50.481Z,72.35
2022-08-01T06:00:50.469Z,72.09
2022-08-01T06:01:50.548Z,72.31
2022-08-01T06:02:50.463Z,71.92
2022-08-01T06:03:50.462Z,71.77
2022-08-01T06:04:50.474Z,71.92
2022-08-01T06:05:50.466Z,71.83
2022-08-01T06:06:50.483Z,72.46
2022-08-01T06:07:50.470Z,72.32
2022-08-01T06:08:51.528Z,72.51
2022-08-01T06:09:50.473Z,71.16
2022-08-01T06:10:50.474Z,71.16
2022-08-01T06:11:50.484Z,72.89
2022-08-01T06:12:50.466Z,72.74
2022-08-01T06:13:50.475Z,73.18
2022-08-01T06:14:50.511Z,73.38
2022-08-01T06:15:50.482Z,70.96
2022-08-01T06:16:50.484Z,71.02
2022-08-01T06:17:50.491Z,71.4
2022-08-01T06:18:53.798Z,71.45
2022-08-01T06:19:50.474Z,71.99
2022-08-01T06:20:50.475Z,72.31
2022-08-01T06:21:50.479Z,72.01
2022-08-01T06:22:52.382Z,70.97
2022-08-01T06:23:50.475Z,70.6
2022-08-01T06:24:50.471Z,70.25
2022-08-01T06:25:50.468Z,70.12
2022-08-01T06:26:50.489Z,70.16
2022-08-01T06:27:50.485Z,70.05
2022-08-01T06:28:50.486Z,70.22
2022-08-01T06:29:54.238Z,68.47
2022-08-01T06:30:50.479Z,68.33
2022-08-01T06:31:50.490Z,68.89
2022-08-01T06:32:50.484Z,68.48
2022-08-01T06:33:50.466Z,67.11
2022-08-01T06:34:50.487Z,67.77
2022-08-01T06:35:50.476Z,67.75
2022-08-01T06:36:50.487Z,66.56
2022-08-01T06:37:50.479Z,66.03
2022-08-01T06:38:50.475Z,65.2
2022-08-01T06:39:50.873Z,65.75
2022-08-01T06:40:50.473Z,65.88
2022-08-01T06:41:50.487Z,65.34
2022-08-01T06:42:50.476Z,65.61
2022-08-01T06:43:50.467Z,65.55
2022-08-01T06:44:50.511Z,65.29
2022-08-01T06:45:50.477Z,65.59
2022-08-01T06:46:50.487Z,64.97
2022-08-01T06:47:50.773Z,65.12
2022-08-01T06:48:50.580Z,65.36
2022-08-01T06:49:50.482Z,65.07
2022-08-01T06:50:50.487Z,64.96
2022-08-01T06:51:50.509Z,65.07
2022-08-01T06:52:50.492Z,65.41
2022-08-01T06:53:50.485Z,65.62
2022-08-01T06:54:50.501Z,66.03
2022-08-01T06:55:50.489Z,65.29
2022-08-01T06:56:50.484Z,65.49
2022-08-01T06:57:50.481Z,65.44
2022-08-01T06:58:50.469Z,65.54
2022-08-01T06:59:51.983Z,66.07
2022-08-01T07:00:54.722Z,66.22
2022-08-01T07:01:50.471Z,66.85
2022-08-01T07:02:50.457Z,67.53
2022-08-01T07:03:54.420Z,67.84
2022-08-01T07:04:50.471Z,68.47
2022-08-01T07:05:50.476Z,72.49
2022-08-01T07:06:50.499Z,68.74
2022-08-01T07:07:50.480Z,68.9
2022-08-01T07:08:50.484Z,69.1
2022-08-01T07:09:50.479Z,68.93
2022-08-01T07:10:50.467Z,69.2
2022-08-01T07:11:50.499Z,69.52
2022-08-01T07:12:50.466Z,69.64
2022-08-01T07:13:50.473Z,74.85
2022-08-01T07:14:50.491Z,69.67
2022-08-01T07:15:50.479Z,69.6
2022-08-01T07:16:50.488Z,69.47
2022-08-01T07:17:50.480Z,69.63
2022-08-01T07:18:50.475Z,69.59
2022-08-01T07:19:50.472Z,69.8
2022-08-01T07:20:52.854Z,70.04
2022-08-01T07:21:50.502Z,70.04
2022-08-01T07:22:50.481Z,69.68
2022-08-01T07:23:50.491Z,69.96
2022-08-01T07:24:50.478Z,70.08
2022-08-01T07:25:52.724Z,69.82
2022-08-01T07:26:53.034Z,70.38
2022-08-01T07:27:50.473Z,70.46
2022-08-01T07:28:50.493Z,69.84
2022-08-01T07:29:50.492Z,69.88
2022-08-01T07:30:50.468Z,69.65
2022-08-01T07:31:50.483Z,69.57
2022-08-01T07:32:50.467Z,69.09
2022-08-01T07:33:50.478Z,69.09
2022-08-01T07:34:50.476Z,68.76
2022-08-01T07:35:50.501Z,68.34
2022-08-01T07:36:50.511Z,68.62
2022-08-01T07:37:50.491Z,69.05
2022-08-01T07:38:50.482Z,68.85
2022-08-01T07:39:50.476Z,69.01
2022-08-01T07:40:50.486Z,68.4
2022-08-01T07:42:06.274Z,68.39
2022-08-01T07:42:50.472Z,68.38
2022-08-01T07:43:56.457Z,68.42
2022-08-01T07:44:50.498Z,68.51
2022-08-01T07:45:50.478Z,68.17
2022-08-01T07:46:50.479Z,68.59
2022-08-01T07:47:50.462Z,68.59
2022-08-01T07:48:50.526Z,69.07
2022-08-01T07:49:50.471Z,69.26
2022-08-01T07:50:50.487Z,68.89
2022-08-01T07:52:03.989Z,68.63
2022-08-01T07:52:50.479Z,68.06
2022-08-01T07:53:50.471Z,67.86
2022-08-01T07:54:52.249Z,68.16
2022-08-01T07:55:50.488Z,68.36
2022-08-01T07:56:50.485Z,68.3
2022-08-01T07:57:50.472Z,68.86
2022-08-01T07:58:50.466Z,68.91
2022-08-01T07:59:50.490Z,69.26
2022-08-01T08:00:50.469Z,75.59
2022-08-01T08:01:50.563Z,69.83
2022-08-01T08:02:50.470Z,69.91
2022-08-01T08:03:50.468Z,70.37
2022-08-01T08:04:50.472Z,70.36
2022-08-01T08:05:57.950Z,69.81
2022-08-01T08:06:50.486Z,70.06
2022-08-01T08:07:50.477Z,69.84
2022-08-01T08:08:50.482Z,69.14
2022-08-01T08:09:51.099Z,69.27
2022-08-01T08:10:50.529Z,69.37
2022-08-01T08:11:50.431Z,69.1
2022-08-01T08:12:50.411Z,68.6
2022-08-01T08:13:50.398Z,68.27
2022-08-01T08:14:50.410Z,68.49
2022-08-01T08:15:50.421Z,68.26
2022-08-01T08:16:50.413Z,68.27
2022-08-01T08:17:55.155Z,68.04
2022-08-01T08:18:50.372Z,67.59
2022-08-01T08:19:50.499Z,67.6
2022-08-01T08:20:50.502Z,67.94
2022-08-01T08:21:50.521Z,67.91
2022-08-01T08:22:50.515Z,67.87
2022-08-01T08:23:50.497Z,68.4
2022-08-01T08:24:50.494Z,68.84
2022-08-01T08:25:50.509Z,68.84
2022-08-01T08:26:52.270Z,69.16
2022-08-01T08:27:50.467Z,69.12
2022-08-01T08:28:50.471Z,68.55
2022-08-01T08:29:50.482Z,68.11
2022-08-01T08:30:50.454Z,67.66
2022-08-01T08:31:52.447Z,67.93
2022-08-01T08:32:50.451Z,68.22
2022-08-01T08:33:50.446Z,67.86
2022-08-01T08:34:50.453Z,68.34
2022-08-01T08:35:53.763Z,68.59
2022-08-01T08:36:50.480Z,68.47
2022-08-01T08:37:50.565Z,68.56
2022-08-01T08:38:50.474Z,68.8
2022-08-01T08:39:50.477Z,68.83
2022-08-01T08:40:50.475Z,69.34
2022-08-01T08:41:50.497Z,69.43
2022-08-01T08:42:50.497Z,69.87
2022-08-01T08:43:50.471Z,70.51
2022-08-01T08:44:50.507Z,70.59
2022-08-01T08:45:59.880Z,70.7
2022-08-01T08:46:50.473Z,70.96
2022-08-01T08:47:50.471Z,71.38
2022-08-01T08:48:50.506Z,71.64
2022-08-01T08:49:50.472Z,71.82
2022-08-01T08:50:50.472Z,72.25
2022-08-01T08:51:50.491Z,72.18
2022-08-01T08:52:50.492Z,72.19
2022-08-01T08:53:50.474Z,72.19
2022-08-01T08:54:50.486Z,72.34
2022-08-01T08:55:56.311Z,72.67
2022-08-01T08:56:50.505Z,72.67
2022-08-01T08:57:50.490Z,73.31
2022-08-01T08:58:50.479Z,73.6
2022-08-01T08:59:50.475Z,73.19
2022-08-01T09:00:50.473Z,73.06
2022-08-01T09:01:50.489Z,72.67
2022-08-01T09:02:50.589Z,72.22
2022-08-01T09:03:50.487Z,72.46
2022-08-01T09:04:50.474Z,72.03
2022-08-01T09:05:50.473Z,72.03
2022-08-01T09:06:50.497Z,70.97
2022-08-01T09:07:50.487Z,71.42
2022-08-01T09:08:50.473Z,71.4
2022-08-01T09:09:51.389Z,71.11
2022-08-01T09:10:50.477Z,70.89
2022-08-01T09:11:57.215Z,71.18
2022-08-01T09:12:50.481Z,69.95
2022-08-01T09:13:50.474Z,70.62
2022-08-01T09:14:50.497Z,70.91
2022-08-01T09:15:50.485Z,71.35
2022-08-01T09:16:50.492Z,71.27
2022-08-01T09:17:50.507Z,70.83
2022-08-01T09:18:53.774Z,70.95
2022-08-01T09:19:50.485Z,70.92
2022-08-01T09:20:50.489Z,71.02
2022-08-01T09:21:50.483Z,71.36
2022-08-01T09:22:50.481Z,71.36
2022-08-01T09:23:53.583Z,70.46
2022-08-01T09:24:50.462Z,70.21
2022-08-01T09:25:50.496Z,70.31
2022-08-01T09:26:50.493Z,70.26
2022-08-01T09:27:50.487Z,70.84
2022-08-01T09:28:50.471Z,70.84
2022-08-01T09:30:01.656Z,71.23
2022-08-01T09:30:50.477Z,70.76
2022-08-01T09:31:50.497Z,70.65
2022-08-01T09:32:50.487Z,75.93
2022-08-01T09:33:50.688Z,70.33
2022-08-01T09:34:50.471Z,70.01
2022-08-01T09:35:50.475Z,69.76
2022-08-01T09:36:50.481Z,70.12
2022-08-01T09:37:50.479Z,70.17
2022-08-01T09:38:51.066Z,69.93
2022-08-01T09:39:50.484Z,70.21
2022-08-01T09:40:50.478Z,70.13
2022-08-01T09:41:50.479Z,69.58
2022-08-01T09:42:50.467Z,69.28
2022-08-01T09:43:50.482Z,69.28
2022-08-01T09:44:54.903Z,69.01
2022-08-01T09:45:53.426Z,69.09
2022-08-01T09:46:50.491Z,69.09
2022-08-01T09:47:50.469Z,69.09
2022-08-01T09:48:50.506Z,68.8
2022-08-01T09:49:52.135Z,69.04
2022-08-01T09:50:50.467Z,68.55
2022-08-01T09:51:58.958Z,68.2
2022-08-01T09:52:50.482Z,67.89
2022-08-01T09:53:52.655Z,67.8
2022-08-01T09:54:50.471Z,66.67
2022-08-01T09:55:50.471Z,71.39
2022-08-01T09:56:50.559Z,67.06
2022-08-01T09:57:50.475Z,67.48
2022-08-01T09:58:57.844Z,68.19
2022-08-01T09:59:58.440Z,68.06
2022-08-01T10:00:50.470Z,68.1
2022-08-01T10:01:50.476Z,67.67
2022-08-01T10:02:50.465Z,67.05
2022-08-01T10:03:50.522Z,66.95
2022-08-01T10:04:50.686Z,66.8
2022-08-01T10:05:50.467Z,66.26
2022-08-01T10:06:50.856Z,66.26
2022-08-01T10:07:50.462Z,65.63
2022-08-01T10:08:50.466Z,65.42
2022-08-01T10:09:50.481Z,65.42
2022-08-01T10:10:50.466Z,64.25
2022-08-01T10:11:50.472Z,64.42
2022-08-01T10:12:50.468Z,65.62
2022-08-01T10:13:50.471Z,65.42
2022-08-01T10:14:50.639Z,65.23
2022-08-01T10:15:50.468Z,65.22
2022-08-01T10:16:53.724Z,65.89
2022-08-01T10:17:51.568Z,66.2
2022-08-01T10:18:50.478Z,66.2
2022-08-01T10:19:50.465Z,66.43
2022-08-01T10:20:50.481Z,66.44
2022-08-01T10:21:56.672Z,65.95
2022-08-01T10:22:50.466Z,66.39
2022-08-01T10:23:50.483Z,66.66
2022-08-01T10:24:50.704Z,66.51
2022-08-01T10:25:50.485Z,66.14
2022-08-01T10:26:50.497Z,66.35
2022-08-01T10:27:50.477Z,70.59
2022-08-01T10:28:50.487Z,67.4
2022-08-01T10:30:05.156Z,67.79
2022-08-01T10:30:50.490Z,67.46
2022-08-01T10:31:50.724Z,67.77
2022-08-01T10:32:51.202Z,73.72
2022-08-01T10:33:53.359Z,69.21
2022-08-01T10:34:50.482Z,69.21
2022-08-01T10:35:50.471Z,69.55
2022-08-01T10:36:50.494Z,69.66
2022-08-01T10:37:52.380Z,69.71
2022-08-01T10:38:50.475Z,69.81
2022-08-01T10:39:50.473Z,69.16
2022-08-01T10:40:50.478Z,68.81
2022-08-01T10:41:50.493Z,68.56
2022-08-01T10:42:50.470Z,68.15
2022-08-01T10:43:50.472Z,67.63
2022-08-01T10:44:50.496Z,67.54
2022-08-01T10:45:50.482Z,67.54
2022-08-01T10:46:50.488Z,67.16
2022-08-01T10:47:51.188Z,66.43
2022-08-01T10:48:52.112Z,70.85
2022-08-01T10:49:50.467Z,66.41
2022-08-01T10:50:50.469Z,66.04
2022-08-01T10:51:52.887Z,66.24
2022-08-01T10:52:50.471Z,65.95
2022-08-01T10:53:50.471Z,66.15
2022-08-01T10:54:52.703Z,66.06
2022-08-01T10:55:50.465Z,66.31
2022-08-01T10:56:50.490Z,66.38
2022-08-01T10:57:52.979Z,65.99
2022-08-01T10:58:50.465Z,66.17
2022-08-01T11:00:01.521Z,65.71
2022-08-01T11:00:50.467Z,65.84
2022-08-01T11:01:50.523Z,65.05
2022-08-01T11:02:50.468Z,64.22
2022-08-01T11:03:57.485Z,64.73
2022-08-01T11:04:50.474Z,65.1
2022-08-01T11:05:50.509Z,65.8
2022-08-01T11:06:50.495Z,69.54
2022-08-01T11:07:50.473Z,64.75
2022-08-01T11:08:50.492Z,65.02
2022-08-01T11:09:52.010Z,65.34
2022-08-01T11:10:50.473Z,65.28
2022-08-01T11:11:50.490Z,64.87
2022-08-01T11:12:50.488Z,65.17
2022-08-01T11:13:50.473Z,64.5
2022-08-01T11:14:55.635Z,64.09
2022-08-01T11:15:50.958Z,64.1
2022-08-01T11:16:50.514Z,62.78
2022-08-01T11:17:50.481Z,63.18
2022-08-01T11:18:50.474Z,63.88
2022-08-01T11:19:50.472Z,63.41
2022-08-01T11:20:50.485Z,63.22
2022-08-01T11:21:57.178Z,62.8
2022-08-01T11:22:50.467Z,62.09
2022-08-01T11:23:50.472Z,62.41
2022-08-01T11:24:50.878Z,62.9
2022-08-01T11:26:03.994Z,62.9
2022-08-01T11:26:50.482Z,62.77
2022-08-01T11:27:50.479Z,62.67
2022-08-01T11:29:17.996Z,62.87
2022-08-01T11:29:50.495Z,62.38
2022-08-01T11:30:50.490Z,61.76
2022-08-01T11:31:50.491Z,61.81
2022-08-01T11:33:05.867Z,62.15
2022-08-01T11:33:50.469Z,62.54
2022-08-01T11:34:50.470Z,62.19
2022-08-01T11:35:50.493Z,62.19
2022-08-01T11:36:59.249Z,62.29
2022-08-01T11:37:50.471Z,61.65
2022-08-01T11:38:50.479Z,61.3
2022-08-01T11:39:50.478Z,61.32
2022-08-01T11:40:50.466Z,62.04
2022-08-01T11:41:50.485Z,62.82
2022-08-01T11:42:50.480Z,62.27
2022-08-01T11:43:50.470Z,61.99
2022-08-01T11:44:50.678Z,62.39
2022-08-01T11:45:50.506Z,62.9
2022-08-01T11:46:51.104Z,62.42
2022-08-01T11:47:50.494Z,63.02
2022-08-01T11:48:50.528Z,63.02
2022-08-01T11:49:50.495Z,63.09
2022-08-01T11:50:50.473Z,64.18
2022-08-01T11:51:50.497Z,63.99
2022-08-01T11:52:50.474Z,63.99
2022-08-01T11:53:50.474Z,64.24
2022-08-01T11:54:50.500Z,63.68
2022-08-01T11:55:51.403Z,63.65
2022-08-01T11:56:50.490Z,62.81
2022-08-01T11:57:50.485Z,61.64
2022-08-01T11:58:50.492Z,61.2
2022-08-01T12:00:02.483Z,61.36
2022-08-01T12:00:50.474Z,61.06
2022-08-01T12:01:50.484Z,61.29
2022-08-01T12:02:50.544Z,61.03
2022-08-01T12:03:50.471Z,60.72
2022-08-01T12:04:50.481Z,61.48
2022-08-01T12:05:50.482Z,61.74
2022-08-01T12:06:51.001Z,62.31
2022-08-01T12:07:50.471Z,62.55
2022-08-01T12:08:50.470Z,63
2022-08-01T12:09:50.468Z,63.13
2022-08-01T12:10:50.469Z,62.86
2022-08-01T12:11:50.503Z,63.6
2022-08-01T12:12:50.479Z,63.59
2022-08-01T12:13:50.479Z,63.39
2022-08-01T12:14:50.499Z,63.04
2022-08-01T12:15:53.531Z,63.32
2022-08-01T12:16:50.492Z,63.26
2022-08-01T12:17:58.840Z,62.97
2022-08-01T12:18:50.475Z,62.57
2022-08-01T12:19:50.477Z,63.22
2022-08-01T12:20:56.587Z,62.64
2022-08-01T12:21:54.491Z,63.17
2022-08-01T12:22:50.474Z,62.37
2022-08-01T12:23:50.465Z,63.17
2022-08-01T12:24:50.464Z,62.58
2022-08-01T12:25:50.462Z,63.05
2022-08-01T12:26:50.490Z,63.66
2022-08-01T12:27:55.754Z,62.78
2022-08-01T12:28:50.497Z,62.21
2022-08-01T12:29:50.485Z,62.21
2022-08-01T12:30:50.507Z,62.51
2022-08-01T12:31:50.507Z,62.65
2022-08-01T12:32:50.494Z,63.09
2022-08-01T12:33:50.480Z,63.65
2022-08-01T12:34:50.474Z,62.79
2022-08-01T12:35:50.494Z,62.88
2022-08-01T12:36:50.491Z,63.55
2022-08-01T12:37:50.510Z,63.06
2022-08-01T12:38:50.460Z,63.33
2022-08-01T12:39:50.462Z,62.86
2022-08-01T12:40:52.968Z,62.13
2022-08-01T12:41:50.479Z,62.13
2022-08-01T12:42:50.466Z,62.14
2022-08-01T12:43:50.474Z,62.2
2022-08-01T12:44:50.487Z,62.45
2022-08-01T12:45:54.474Z,62.65
2022-08-01T12:46:50.490Z,63
2022-08-01T12:47:50.473Z,62.49
2022-08-01T12:48:50.516Z,62.29
2022-08-01T12:49:50.464Z,61.99
2022-08-01T12:50:50.469Z,62.36
2022-08-01T12:51:57.105Z,62.1
2022-08-01T12:52:50.481Z,62.21
2022-08-01T12:53:50.477Z,61.23
2022-08-01T12:54:50.510Z,60.56
2022-08-01T12:55:59.039Z,60.3